sensor_id;sensor_type;location;lat;lon;timestamp;pressure;altitude;pressure_sealevel;temperature;humidity
74169;BME280;62523;53.336;83.690;2023-03-16T00:04:02;99723.91;;;-2.66;100.00
74169;BME280;62523;53.336;83.690;2023-03-16T00:09:03;99725.56;;;-2.76;100.00
74169;BME280;62523;53.336;83.690;2023-03-16T00:14:04;99742.78;;;-2.77;100.00
74169;BME280;62523;53.336;83.690;2023-03-16T00:19:05;99755.69;;;-2.72;100.00
74169;BME280;62523;53.336;83.690;2023-03-16T00:24:07;99759.13;;;-2.67;100.00
74169;BME280;62523;53.336;83.690;2023-03-16T00:29:08;99760.84;;;-2.68;100.00
74169;BME280;62523;53.336;83.690;2023-03-16T00:34:12;99777.16;;;-2.75;100.00
74169;BME280;62523;53.336;83.690;2023-03-16T00:39:13;99778.03;;;-2.71;100.00
74169;BME280;62523;53.336;83.690;2023-03-16T00:44:14;99767.69;;;-2.76;100.00
74169;BME280;62523;53.336;83.690;2023-03-16T00:49:15;99809.91;;;-2.64;100.00
74169;BME280;62523;53.336;83.690;2023-03-16T00:54:16;99816.72;;;-2.71;100.00
74169;BME280;62523;53.336;83.690;2023-03-16T00:59:17;99794.31;;;-2.81;100.00
74169;BME280;62523;53.336;83.690;2023-03-16T01:04:20;99823.66;;;-2.64;100.00
74169;BME280;62523;53.336;83.690;2023-03-16T01:09:22;99831.38;;;-2.61;100.00
74169;BME280;62523;53.336;83.690;2023-03-16T01:14:23;99837.44;;;-2.56;100.00
74169;BME280;62523;53.336;83.690;2023-03-16T01:19:24;99826.16;;;-2.73;100.00
74169;BME280;62523;53.336;83.690;2023-03-16T01:24:26;99848.59;;;-2.58;100.00
74169;BME280;62523;53.336;83.690;2023-03-16T01:29:27;99841.66;;;-2.72;100.00
74169;BME280;62523;53.336;83.690;2023-03-16T01:34:29;99880.47;;;-2.50;100.00
74169;BME280;62523;53.336;83.690;2023-03-16T01:39:31;99886.53;;;-2.40;100.00
74169;BME280;62523;53.336;83.690;2023-03-16T01:44:55;99892.47;;;-2.55;100.00
74169;BME280;62523;53.336;83.690;2023-03-16T01:49:59;99892.53;;;-2.41;100.00
74169;BME280;62523;53.336;83.690;2023-03-16T01:55:06;99902.03;;;-2.33;100.00
74169;BME280;62523;53.336;83.690;2023-03-16T02:00:12;99911.56;;;-2.25;100.00
74169;BME280;62523;53.336;83.690;2023-03-16T02:05:37;99921.03;;;-2.23;100.00
74169;BME280;62523;53.336;83.690;2023-03-16T02:10:42;99925.34;;;-2.22;100.00
74169;BME280;62523;53.336;83.690;2023-03-16T02:15:44;99940.00;;;-2.16;100.00
74169;BME280;62523;53.336;83.690;2023-03-16T02:21:04;99940.84;;;-2.20;100.00
74169;BME280;62523;53.336;83.690;2023-03-16T02:31:16;99955.44;;;-2.24;100.00
74169;BME280;62523;53.336;83.690;2023-03-16T02:36:18;99969.34;;;-1.96;100.00
74169;BME280;62523;53.336;83.690;2023-03-16T02:41:20;99963.34;;;-1.90;100.00
74169;BME280;62523;53.336;83.690;2023-03-16T02:46:24;99935.81;;;-1.88;100.00
74169;BME280;62523;53.336;83.690;2023-03-16T02:51:26;99958.31;;;-1.62;100.00
74169;BME280;62523;53.336;83.690;2023-03-16T02:56:28;99959.03;;;-1.90;100.00
74169;BME280;62523;53.336;83.690;2023-03-16T03:01:29;99962.63;;;-1.58;100.00
74169;BME280;62523;53.336;83.690;2023-03-16T03:06:32;99983.38;;;-1.28;100.00
74169;BME280;62523;53.336;83.690;2023-03-16T03:11:36;99978.13;;;-1.60;100.00
74169;BME280;62523;53.336;83.690;2023-03-16T03:16:37;99973.88;;;-1.36;100.00
74169;BME280;62523;53.336;83.690;2023-03-16T03:21:40;99984.28;;;-1.18;100.00
74169;BME280;62523;53.336;83.690;2023-03-16T03:26:42;99999.75;;;-1.29;100.00
74169;BME280;62523;53.336;83.690;2023-03-16T03:31:44;100004.09;;;-1.25;100.00
74169;BME280;62523;53.336;83.690;2023-03-16T03:36:45;99966.97;;;-1.45;100.00
74169;BME280;62523;53.336;83.690;2023-03-16T03:41:46;99995.41;;;-1.34;100.00
74169;BME280;62523;53.336;83.690;2023-03-16T03:46:48;100002.34;;;-1.24;100.00
74169;BME280;62523;53.336;83.690;2023-03-16T03:51:49;100010.09;;;-1.24;100.00
74169;BME280;62523;53.336;83.690;2023-03-16T03:56:51;99995.47;;;-1.04;100.00
74169;BME280;62523;53.336;83.690;2023-03-16T04:01:52;99974.81;;;-0.99;100.00
74169;BME280;62523;53.336;83.690;2023-03-16T04:06:53;99998.88;;;-1.35;100.00
74169;BME280;62523;53.336;83.690;2023-03-16T04:11:54;100011.88;;;-1.03;100.00
74169;BME280;62523;53.336;83.690;2023-03-16T04:16:57;100009.25;;;-1.20;100.00
74169;BME280;62523;53.336;83.690;2023-03-16T04:21:58;99960.94;;;-1.44;100.00
74169;BME280;62523;53.336;83.690;2023-03-16T04:27:00;99978.19;;;-1.34;100.00
74169;BME280;62523;53.336;83.690;2023-03-16T04:32:02;99982.56;;;-0.97;100.00
74169;BME280;62523;53.336;83.690;2023-03-16T04:37:06;99967.91;;;-1.06;100.00
74169;BME280;62523;53.336;83.690;2023-03-16T04:42:07;99993.78;;;-0.52;100.00
74169;BME280;62523;53.336;83.690;2023-03-16T04:47:09;99988.59;;;-0.32;100.00
74169;BME280;62523;53.336;83.690;2023-03-16T04:52:11;99986.91;;;-0.58;100.00
74169;BME280;62523;53.336;83.690;2023-03-16T04:57:12;99973.94;;;-0.52;100.00
74169;BME280;62523;53.336;83.690;2023-03-16T05:02:13;100005.88;;;-0.84;100.00
74169;BME280;62523;53.336;83.690;2023-03-16T05:07:14;99998.13;;;-0.79;100.00
74169;BME280;62523;53.336;83.690;2023-03-16T05:12:15;100008.44;;;-0.19;100.00
74169;BME280;62523;53.336;83.690;2023-03-16T05:17:17;100005.88;;;-0.31;100.00
74169;BME280;62523;53.336;83.690;2023-03-16T05:22:20;100013.66;;;-0.51;99.94
74169;BME280;62523;53.336;83.690;2023-03-16T05:27:22;100025.72;;;-0.70;100.00
74169;BME280;62523;53.336;83.690;2023-03-16T05:32:23;99992.06;;;-0.78;99.64
74169;BME280;62523;53.336;83.690;2023-03-16T05:37:24;100005.88;;;-0.80;100.00
74169;BME280;62523;53.336;83.690;2023-03-16T05:42:25;100027.44;;;-0.52;100.00
74169;BME280;62523;53.336;83.690;2023-03-16T05:47:31;100025.69;;;-0.89;100.00
74169;BME280;62523;53.336;83.690;2023-03-16T05:52:32;100010.16;;;-0.30;100.00
74169;BME280;62523;53.336;83.690;2023-03-16T05:57:34;100028.28;;;-0.30;100.00
74169;BME280;62523;53.336;83.690;2023-03-16T06:02:36;100019.66;;;-0.14;99.30
74169;BME280;62523;53.336;83.690;2023-03-16T06:07:37;100018.78;;;-0.17;97.62
74169;BME280;62523;53.336;83.690;2023-03-16T06:12:39;100026.59;;;-0.24;98.33
74169;BME280;62523;53.336;83.690;2023-03-16T06:17:41;100024.00;;;-0.40;98.27
74169;BME280;62523;53.336;83.690;2023-03-16T06:22:42;100025.72;;;-0.27;96.06
74169;BME280;62523;53.336;83.690;2023-03-16T06:27:44;100009.31;;;-0.17;97.06
74169;BME280;62523;53.336;83.690;2023-03-16T06:32:45;100036.94;;;-0.19;95.49
74169;BME280;62523;53.336;83.690;2023-03-16T06:37:46;100031.63;;;0.35;94.87
74169;BME280;62523;53.336;83.690;2023-03-16T06:42:48;100031.59;;;0.38;93.81
74169;BME280;62523;53.336;83.690;2023-03-16T06:47:49;100017.00;;;0.08;93.56
74169;BME280;62523;53.336;83.690;2023-03-16T06:52:50;100026.44;;;0.27;92.96
74169;BME280;62523;53.336;83.690;2023-03-16T06:57:51;100026.41;;;0.39;92.85
74169;BME280;62523;53.336;83.690;2023-03-16T07:02:52;100007.41;;;0.40;94.82
74169;BME280;62523;53.336;83.690;2023-03-16T07:07:54;100004.91;;;0.13;95.32
74169;BME280;62523;53.336;83.690;2023-03-16T07:12:55;100035.09;;;0.31;93.87
74169;BME280;62523;53.336;83.690;2023-03-16T07:17:57;100033.34;;;0.30;94.36
74169;BME280;62523;53.336;83.690;2023-03-16T07:22:58;100032.56;;;0.11;96.28
74169;BME280;62523;53.336;83.690;2023-03-16T07:27:59;100018.56;;;0.59;94.53
74169;BME280;62523;53.336;83.690;2023-03-16T07:33:00;100017.81;;;0.24;95.17
74169;BME280;62523;53.336;83.690;2023-03-16T07:38:03;100006.72;;;-0.23;96.65
74169;BME280;62523;53.336;83.690;2023-03-16T07:43:04;100025.59;;;0.24;97.08
74169;BME280;62523;53.336;83.690;2023-03-16T07:48:05;100035.13;;;0.22;95.74
74169;BME280;62523;53.336;83.690;2023-03-16T07:53:06;100026.44;;;0.35;97.43
74169;BME280;62523;53.336;83.690;2023-03-16T07:58:08;100004.97;;;-0.12;97.62
74169;BME280;62523;53.336;83.690;2023-03-16T08:03:10;99984.22;;;0.05;97.26
74169;BME280;62523;53.336;83.690;2023-03-16T08:08:11;100011.84;;;0.11;97.68
74169;BME280;62523;53.336;83.690;2023-03-16T08:13:12;100020.31;;;0.53;95.70
74169;BME280;62523;53.336;83.690;2023-03-16T08:18:14;100015.34;;;-0.24;98.11
74169;BME280;62523;53.336;83.690;2023-03-16T08:23:15;100011.03;;;-0.19;98.07
74169;BME280;62523;53.336;83.690;2023-03-16T08:28:17;100004.97;;;-0.04;98.63
74169;BME280;62523;53.336;83.690;2023-03-16T08:33:21;100015.28;;;0.10;97.12
74169;BME280;62523;53.336;83.690;2023-03-16T08:38:22;100001.50;;;-0.05;96.73
74169;BME280;62523;53.336;83.690;2023-03-16T08:43:23;100028.22;;;0.08;97.05
74169;BME280;62523;53.336;83.690;2023-03-16T08:48:26;100030.03;;;-0.34;97.67
74169;BME280;62523;53.336;83.690;2023-03-16T08:53:29;100020.53;;;-0.27;96.92
74169;BME280;62523;53.336;83.690;2023-03-16T08:58:32;100045.53;;;-0.26;98.58
74169;BME280;62523;53.336;83.690;2023-03-16T09:03:34;100047.28;;;-0.36;98.23
74169;BME280;62523;53.336;83.690;2023-03-16T09:08:36;100017.09;;;-0.51;99.87
74169;BME280;62523;53.336;83.690;2023-03-16T09:13:39;100050.72;;;-0.32;98.54
74169;BME280;62523;53.336;83.690;2023-03-16T09:18:41;100020.50;;;-0.13;97.25
74169;BME280;62523;53.336;83.690;2023-03-16T09:23:43;100016.22;;;-0.44;97.51
74169;BME280;62523;53.336;83.690;2023-03-16T09:28:44;100036.06;;;-0.21;97.83
74169;BME280;62523;53.336;83.690;2023-03-16T09:33:46;100042.97;;;-0.34;97.36
74169;BME280;62523;53.336;83.690;2023-03-16T09:38:47;100023.97;;;-0.25;98.00
74169;BME280;62523;53.336;83.690;2023-03-16T09:49:23;100040.38;;;-0.58;96.06
74169;BME280;62523;53.336;83.690;2023-03-16T09:54:48;100040.38;;;-0.46;96.82
74169;BME280;62523;53.336;83.690;2023-03-16T09:59:53;100032.59;;;-0.54;96.17
74169;BME280;62523;53.336;83.690;2023-03-16T10:05:07;100036.94;;;-0.57;96.15
74169;BME280;62523;53.336;83.690;2023-03-16T10:15:16;100042.97;;;-0.58;97.44
74169;BME280;62523;53.336;83.690;2023-03-16T10:20:20;100019.66;;;-0.85;98.59
74169;BME280;62523;53.336;83.690;2023-03-16T10:25:26;100029.16;;;-0.65;99.82
74169;BME280;62523;53.336;83.690;2023-03-16T10:30:33;100034.34;;;-0.65;99.69
74169;BME280;62523;53.336;83.690;2023-03-16T10:35:47;100030.88;;;-0.70;100.00
74169;BME280;62523;53.336;83.690;2023-03-16T10:40:51;100034.34;;;-0.74;100.00
74169;BME280;62523;53.336;83.690;2023-03-16T10:45:58;100042.94;;;-0.74;100.00
74169;BME280;62523;53.336;83.690;2023-03-16T10:51:07;100031.72;;;-0.80;100.00
74169;BME280;62523;53.336;83.690;2023-03-16T10:56:38;100036.06;;;-0.69;100.00
74169;BME280;62523;53.336;83.690;2023-03-16T11:01:43;100014.50;;;-0.92;100.00
74169;BME280;62523;53.336;83.690;2023-03-16T11:06:55;100052.44;;;-0.90;100.00
74169;BME280;62523;53.336;83.690;2023-03-16T11:11:57;100039.50;;;-0.80;100.00
74169;BME280;62523;53.336;83.690;2023-03-16T11:17:02;100055.91;;;-0.81;100.00
74169;BME280;62523;53.336;83.690;2023-03-16T11:22:13;100056.75;;;-0.86;100.00
74169;BME280;62523;53.336;83.690;2023-03-16T11:32:35;100022.22;;;-0.95;100.00
74169;BME280;62523;53.336;83.690;2023-03-16T11:53:49;100049.78;;;-1.08;100.00
74169;BME280;62523;53.336;83.690;2023-03-16T12:20:02;100113.53;;;-1.18;100.00
74169;BME280;62523;53.336;83.690;2023-03-16T12:25:13;100076.31;;;-1.55;100.00
74169;BME280;62523;53.336;83.690;2023-03-16T12:30:31;100145.44;;;-1.13;100.00
74169;BME280;62523;53.336;83.690;2023-03-16T12:35:43;100140.16;;;-1.34;100.00
74169;BME280;62523;53.336;83.690;2023-03-16T12:46:14;100146.13;;;-1.49;100.00
74169;BME280;62523;53.336;83.690;2023-03-16T12:51:18;100173.69;;;-1.50;100.00
74169;BME280;62523;53.336;83.690;2023-03-16T12:56:27;100169.25;;;-1.69;100.00
74169;BME280;62523;53.336;83.690;2023-03-16T13:01:37;100155.22;;;-2.00;100.00
74169;BME280;62523;53.336;83.690;2023-03-16T13:06:43;100177.72;;;-1.86;100.00
74169;BME280;62523;53.336;83.690;2023-03-16T13:11:47;100199.22;;;-1.91;100.00
74169;BME280;62523;53.336;83.690;2023-03-16T13:17:02;100181.81;;;-2.12;100.00
74169;BME280;62523;53.336;83.690;2023-03-16T13:27:26;100216.47;;;-1.86;100.00
74169;BME280;62523;53.336;83.690;2023-03-16T13:32:31;100215.63;;;-1.84;100.00
74169;BME280;62523;53.336;83.690;2023-03-16T13:37:32;100200.88;;;-1.96;100.00
74169;BME280;62523;53.336;83.690;2023-03-16T13:42:34;100207.78;;;-1.97;100.00
74169;BME280;62523;53.336;83.690;2023-03-16T13:47:41;100223.22;;;-2.01;100.00
74169;BME280;62523;53.336;83.690;2023-03-16T13:52:51;100214.50;;;-2.14;100.00
74169;BME280;62523;53.336;83.690;2023-03-16T13:57:54;100177.31;;;-2.36;100.00
74169;BME280;62523;53.336;83.690;2023-03-16T14:02:57;100218.81;;;-2.13;100.00
74169;BME280;62523;53.336;83.690;2023-03-16T14:07:59;100210.25;;;-2.08;100.00
74169;BME280;62523;53.336;83.690;2023-03-16T14:18:40;100196.28;;;-2.31;100.00
74169;BME280;62523;53.336;83.690;2023-03-16T14:24:06;100228.16;;;-2.24;100.00
74169;BME280;62523;53.336;83.690;2023-03-16T14:29:24;100221.25;;;-2.29;100.00
74169;BME280;62523;53.336;83.690;2023-03-16T14:39:28;100171.84;;;-2.64;100.00
74169;BME280;62523;53.336;83.690;2023-03-16T14:44:31;100186.28;;;-2.80;100.00
74169;BME280;62523;53.336;83.690;2023-03-16T14:49:38;100237.53;;;-2.34;100.00
74169;BME280;62523;53.336;83.690;2023-03-16T14:54:39;100242.50;;;-2.51;100.00
74169;BME280;62523;53.336;83.690;2023-03-16T14:59:40;100220.06;;;-2.60;100.00
74169;BME280;62523;53.336;83.690;2023-03-16T15:04:43;100241.38;;;-2.73;100.00
74169;BME280;62523;53.336;83.690;2023-03-16T15:09:45;100236.16;;;-2.79;100.00
74169;BME280;62523;53.336;83.690;2023-03-16T15:14:47;100225.75;;;-2.85;100.00
74169;BME280;62523;53.336;83.690;2023-03-16T15:20:08;100223.06;;;-2.96;100.00
74169;BME280;62523;53.336;83.690;2023-03-16T15:25:23;100241.19;;;-2.89;100.00
74169;BME280;62523;53.336;83.690;2023-03-16T15:30:26;100237.81;;;-2.86;100.00
74169;BME280;62523;53.336;83.690;2023-03-16T15:35:30;100222.28;;;-2.89;100.00
74169;BME280;62523;53.336;83.690;2023-03-16T15:40:34;100237.66;;;-2.95;100.00
74169;BME280;62523;53.336;83.690;2023-03-16T15:45:35;100241.03;;;-2.99;100.00
74169;BME280;62523;53.336;83.690;2023-03-16T15:50:41;100256.53;;;-2.98;100.00
74169;BME280;62523;53.336;83.690;2023-03-16T15:55:45;100222.09;;;-3.04;100.00
74169;BME280;62523;53.336;83.690;2023-03-16T16:00:50;100235.97;;;-2.93;100.00
74169;BME280;62523;53.336;83.690;2023-03-16T16:05:56;100235.97;;;-2.93;100.00
74169;BME280;62523;53.336;83.690;2023-03-16T16:11:09;100226.44;;;-3.00;100.00
74169;BME280;62523;53.336;83.690;2023-03-16T16:16:15;100221.34;;;-2.96;100.00
74169;BME280;62523;53.336;83.690;2023-03-16T16:21:20;100231.63;;;-2.97;100.00
74169;BME280;62523;53.336;83.690;2023-03-16T16:26:38;100231.66;;;-2.96;100.00
74169;BME280;62523;53.336;83.690;2023-03-16T16:31:40;100236.81;;;-2.93;100.00
74169;BME280;62523;53.336;83.690;2023-03-16T16:36:42;100246.25;;;-2.96;100.00
74169;BME280;62523;53.336;83.690;2023-03-16T16:41:43;100235.03;;;-3.00;100.00
74169;BME280;62523;53.336;83.690;2023-03-16T16:46:47;100213.34;;;-3.14;100.00
74169;BME280;62523;53.336;83.690;2023-03-16T16:51:51;100209.88;;;-3.16;100.00
74169;BME280;62523;53.336;83.690;2023-03-16T16:56:54;100233.22;;;-3.07;100.00
74169;BME280;62523;53.336;83.690;2023-03-16T17:01:56;100229.91;;;-2.98;100.00
74169;BME280;62523;53.336;83.690;2023-03-16T17:06:59;100219.63;;;-2.97;100.00
74169;BME280;62523;53.336;83.690;2023-03-16T17:12:01;100222.25;;;-2.92;100.00
74169;BME280;62523;53.336;83.690;2023-03-16T17:17:08;100233.41;;;-2.92;100.00
74169;BME280;62523;53.336;83.690;2023-03-16T17:22:23;100228.31;;;-2.87;100.00
74169;BME280;62523;53.336;83.690;2023-03-16T17:27:27;100228.41;;;-2.81;100.00
74169;BME280;62523;53.336;83.690;2023-03-16T17:32:29;100217.34;;;-2.71;100.00
74169;BME280;62523;53.336;83.690;2023-03-16T17:37:30;100199.97;;;-2.84;100.00
74169;BME280;62523;53.336;83.690;2023-03-16T17:42:31;100230.38;;;-2.60;100.00
74169;BME280;62523;53.336;83.690;2023-03-16T17:47:33;100223.47;;;-2.61;100.00
74169;BME280;62523;53.336;83.690;2023-03-16T17:52:39;100223.56;;;-2.53;100.00
74169;BME280;62523;53.336;83.690;2023-03-16T17:57:40;100222.59;;;-2.61;100.00
74169;BME280;62523;53.336;83.690;2023-03-16T18:07:55;100201.13;;;-2.62;100.00
74169;BME280;62523;53.336;83.690;2023-03-16T18:13:00;100204.63;;;-2.55;100.00
74169;BME280;62523;53.336;83.690;2023-03-16T18:18:04;100211.56;;;-2.51;100.00
74169;BME280;62523;53.336;83.690;2023-03-16T18:23:21;100204.66;;;-2.51;100.00
74169;BME280;62523;53.336;83.690;2023-03-16T18:28:23;100165.78;;;-2.68;100.00
74169;BME280;62523;53.336;83.690;2023-03-16T18:33:25;100199.50;;;-2.54;100.00
74169;BME280;62523;53.336;83.690;2023-03-16T18:38:30;100192.59;;;-2.55;100.00
74169;BME280;62523;53.336;83.690;2023-03-16T18:43:32;100185.66;;;-2.59;100.00
74169;BME280;62523;53.336;83.690;2023-03-16T18:48:33;100193.50;;;-2.48;100.00
74169;BME280;62523;53.336;83.690;2023-03-16T18:53:36;100176.38;;;-2.43;100.00
74169;BME280;62523;53.336;83.690;2023-03-16T18:58:37;100180.72;;;-2.37;100.00
74169;BME280;62523;53.336;83.690;2023-03-16T19:03:41;100186.75;;;-2.37;100.00
74169;BME280;62523;53.336;83.690;2023-03-16T19:08:44;100192.84;;;-2.32;100.00
74169;BME280;62523;53.336;83.690;2023-03-16T19:13:45;100197.13;;;-2.31;100.00
74169;BME280;62523;53.336;83.690;2023-03-16T19:18:46;100198.84;;;-2.34;100.00
74169;BME280;62523;53.336;83.690;2023-03-16T19:23:57;100208.34;;;-2.29;100.00
74169;BME280;62523;53.336;83.690;2023-03-16T19:29:00;100196.34;;;-2.25;100.00
74169;BME280;62523;53.336;83.690;2023-03-16T19:34:02;100195.38;;;-2.33;100.00
74169;BME280;62523;53.336;83.690;2023-03-16T19:39:03;100196.25;;;-2.33;100.00
74169;BME280;62523;53.336;83.690;2023-03-16T19:44:19;100190.31;;;-2.25;100.00
74169;BME280;62523;53.336;83.690;2023-03-16T19:49:24;100193.69;;;-2.28;100.00
74169;BME280;62523;53.336;83.690;2023-03-16T19:54:27;100198.00;;;-2.32;100.00
74169;BME280;62523;53.336;83.690;2023-03-16T19:59:31;100189.31;;;-2.37;100.00
74169;BME280;62523;53.336;83.690;2023-03-16T20:04:33;100209.19;;;-2.30;100.00
74169;BME280;62523;53.336;83.690;2023-03-16T20:09:34;100210.09;;;-2.24;100.00
74169;BME280;62523;53.336;83.690;2023-03-16T20:14:35;100201.56;;;-2.19;100.00
74169;BME280;62523;53.336;83.690;2023-03-16T20:19:36;100187.78;;;-2.18;100.00
74169;BME280;62523;53.336;83.690;2023-03-16T20:24:38;100178.31;;;-2.20;100.00
74169;BME280;62523;53.336;83.690;2023-03-16T20:29:39;100179.19;;;-2.18;100.00
74169;BME280;62523;53.336;83.690;2023-03-16T20:34:41;100178.38;;;-2.13;100.00
74169;BME280;62523;53.336;83.690;2023-03-16T20:39:42;100178.38;;;-2.14;100.00
74169;BME280;62523;53.336;83.690;2023-03-16T20:44:44;100171.56;;;-2.06;100.00
74169;BME280;62523;53.336;83.690;2023-03-16T20:49:45;100168.06;;;-2.10;100.00
74169;BME280;62523;53.336;83.690;2023-03-16T20:54:50;100168.16;;;-2.02;100.00
74169;BME280;62523;53.336;83.690;2023-03-16T20:59:52;100162.94;;;-2.08;100.00
74169;BME280;62523;53.336;83.690;2023-03-16T21:04:57;100156.03;;;-2.08;100.00
74169;BME280;62523;53.336;83.690;2023-03-16T21:09:59;100155.16;;;-2.13;100.00
74169;BME280;62523;53.336;83.690;2023-03-16T21:15:01;100147.38;;;-2.16;100.00
74169;BME280;62523;53.336;83.690;2023-03-16T21:20:17;100146.53;;;-2.13;100.00
74169;BME280;62523;53.336;83.690;2023-03-16T21:25:22;100125.84;;;-2.19;100.00
74169;BME280;62523;53.336;83.690;2023-03-16T21:30:30;100135.38;;;-2.11;100.00
74169;BME280;62523;53.336;83.690;2023-03-16T21:35:34;100139.66;;;-2.11;100.00
74169;BME280;62523;53.336;83.690;2023-03-16T21:40:35;100120.63;;;-2.24;100.00
74169;BME280;62523;53.336;83.690;2023-03-16T21:45:37;100122.38;;;-2.21;100.00
74169;BME280;62523;53.336;83.690;2023-03-16T21:50:38;100127.59;;;-2.17;100.00
74169;BME280;62523;53.336;83.690;2023-03-16T21:55:40;100134.47;;;-2.16;100.00
74169;BME280;62523;53.336;83.690;2023-03-16T22:00:41;100145.59;;;-2.20;100.00
74169;BME280;62523;53.336;83.690;2023-03-16T22:05:43;100131.84;;;-2.20;100.00
74169;BME280;62523;53.336;83.690;2023-03-16T22:10:44;100139.59;;;-2.19;100.00
74169;BME280;62523;53.336;83.690;2023-03-16T22:15:48;100143.06;;;-2.15;100.00
74169;BME280;62523;53.336;83.690;2023-03-16T22:20:51;100148.22;;;-2.18;100.00
74169;BME280;62523;53.336;83.690;2023-03-16T22:25:52;100098.97;;;-2.40;100.00
74169;BME280;62523;53.336;83.690;2023-03-16T22:30:55;100116.34;;;-2.22;100.00
74169;BME280;62523;53.336;83.690;2023-03-16T22:36:15;100110.28;;;-2.27;100.00
74169;BME280;62523;53.336;83.690;2023-03-16T22:41:17;100121.53;;;-2.20;100.00
74169;BME280;62523;53.336;83.690;2023-03-16T22:46:25;100114.63;;;-2.20;100.00
74169;BME280;62523;53.336;83.690;2023-03-16T22:51:34;100125.88;;;-2.15;100.00
74169;BME280;62523;53.336;83.690;2023-03-16T22:56:37;100125.88;;;-2.15;100.00
74169;BME280;62523;53.336;83.690;2023-03-16T23:01:42;100123.28;;;-2.13;100.00
74169;BME280;62523;53.336;83.690;2023-03-16T23:06:45;100125.03;;;-2.12;100.00
74169;BME280;62523;53.336;83.690;2023-03-16T23:11:48;100132.75;;;-2.14;100.00
74169;BME280;62523;53.336;83.690;2023-03-16T23:23:06;100125.00;;;-2.15;100.00
74169;BME280;62523;53.336;83.690;2023-03-16T23:28:14;100132.78;;;-2.11;100.00
74169;BME280;62523;53.336;83.690;2023-03-16T23:33:15;100134.50;;;-2.11;100.00
74169;BME280;62523;53.336;83.690;2023-03-16T23:38:17;100131.06;;;-2.10;100.00
74169;BME280;62523;53.336;83.690;2023-03-16T23:43:18;100128.44;;;-2.16;100.00
74169;BME280;62523;53.336;83.690;2023-03-16T23:48:20;100146.56;;;-2.10;100.00
74169;BME280;62523;53.336;83.690;2023-03-16T23:53:21;100146.53;;;-2.12;100.00
74169;BME280;62523;53.336;83.690;2023-03-16T23:58:25;100147.41;;;-2.11;100.00
